sensor_id;sensor_type;location;lat;lon;timestamp;P1;durP1;ratioP1;P2;durP2;ratioP2
70576;SDS011;58138;43.138;24.702;2024-03-08T00:02:13;11.88;;;9.60;;
70576;SDS011;58138;43.138;24.702;2024-03-08T00:04:39;13.88;;;10.00;;
70576;SDS011;58138;43.138;24.702;2024-03-08T00:07:04;15.50;;;10.25;;
70576;SDS011;58138;43.138;24.702;2024-03-08T00:09:31;12.95;;;10.00;;
70576;SDS011;58138;43.138;24.702;2024-03-08T00:11:56;13.10;;;10.43;;
70576;SDS011;58138;43.138;24.702;2024-03-08T00:14:22;12.57;;;9.70;;
70576;SDS011;58138;43.138;24.702;2024-03-08T00:16:47;11.82;;;9.32;;
70576;SDS011;58138;43.138;24.702;2024-03-08T00:19:13;9.90;;;8.80;;
70576;SDS011;58138;43.138;24.702;2024-03-08T00:21:38;10.18;;;8.10;;
70576;SDS011;58138;43.138;24.702;2024-03-08T00:24:04;12.27;;;9.05;;
70576;SDS011;58138;43.138;24.702;2024-03-08T00:26:30;13.30;;;9.85;;
70576;SDS011;58138;43.138;24.702;2024-03-08T00:28:55;16.42;;;10.80;;
70576;SDS011;58138;43.138;24.702;2024-03-08T00:31:21;16.10;;;10.52;;
70576;SDS011;58138;43.138;24.702;2024-03-08T00:33:46;19.83;;;13.85;;
70576;SDS011;58138;43.138;24.702;2024-03-08T00:36:12;14.43;;;11.15;;
70576;SDS011;58138;43.138;24.702;2024-03-08T00:38:37;14.00;;;10.10;;
70576;SDS011;58138;43.138;24.702;2024-03-08T00:41:03;12.65;;;10.23;;
70576;SDS011;58138;43.138;24.702;2024-03-08T00:43:28;16.00;;;11.82;;
70576;SDS011;58138;43.138;24.702;2024-03-08T00:45:57;15.40;;;11.23;;
70576;SDS011;58138;43.138;24.702;2024-03-08T00:48:23;14.55;;;10.80;;
70576;SDS011;58138;43.138;24.702;2024-03-08T00:50:48;13.90;;;10.52;;
70576;SDS011;58138;43.138;24.702;2024-03-08T00:53:14;15.75;;;11.40;;
70576;SDS011;58138;43.138;24.702;2024-03-08T00:55:40;19.88;;;15.13;;
70576;SDS011;58138;43.138;24.702;2024-03-08T00:58:05;23.85;;;17.75;;
70576;SDS011;58138;43.138;24.702;2024-03-08T01:00:30;27.73;;;20.52;;
70576;SDS011;58138;43.138;24.702;2024-03-08T01:02:56;31.42;;;21.98;;
70576;SDS011;58138;43.138;24.702;2024-03-08T01:05:22;32.80;;;23.13;;
70576;SDS011;58138;43.138;24.702;2024-03-08T01:10:24;36.13;;;25.35;;
70576;SDS011;58138;43.138;24.702;2024-03-08T01:12:50;37.40;;;26.70;;
70576;SDS011;58138;43.138;24.702;2024-03-08T01:15:16;36.10;;;26.70;;
70576;SDS011;58138;43.138;24.702;2024-03-08T01:17:41;41.47;;;28.20;;
70576;SDS011;58138;43.138;24.702;2024-03-08T01:20:08;40.47;;;28.67;;
70576;SDS011;58138;43.138;24.702;2024-03-08T01:22:36;39.05;;;28.02;;
70576;SDS011;58138;43.138;24.702;2024-03-08T01:25:01;40.63;;;27.38;;
70576;SDS011;58138;43.138;24.702;2024-03-08T01:27:29;41.38;;;29.08;;
70576;SDS011;58138;43.138;24.702;2024-03-08T01:29:55;41.63;;;28.10;;
70576;SDS011;58138;43.138;24.702;2024-03-08T01:32:20;36.60;;;26.55;;
70576;SDS011;58138;43.138;24.702;2024-03-08T01:34:48;39.58;;;27.48;;
70576;SDS011;58138;43.138;24.702;2024-03-08T01:37:13;38.28;;;26.35;;
70576;SDS011;58138;43.138;24.702;2024-03-08T01:39:39;38.88;;;26.67;;
70576;SDS011;58138;43.138;24.702;2024-03-08T01:42:05;40.97;;;27.48;;
70576;SDS011;58138;43.138;24.702;2024-03-08T01:44:30;45.00;;;28.52;;
70576;SDS011;58138;43.138;24.702;2024-03-08T01:46:56;40.13;;;27.40;;
70576;SDS011;58138;43.138;24.702;2024-03-08T01:49:22;40.17;;;27.10;;
70576;SDS011;58138;43.138;24.702;2024-03-08T01:51:48;39.28;;;26.67;;
70576;SDS011;58138;43.138;24.702;2024-03-08T01:54:18;41.22;;;27.20;;
70576;SDS011;58138;43.138;24.702;2024-03-08T01:56:45;38.85;;;26.38;;
70576;SDS011;58138;43.138;24.702;2024-03-08T01:59:11;43.55;;;28.58;;
70576;SDS011;58138;43.138;24.702;2024-03-08T02:01:39;44.95;;;30.67;;
70576;SDS011;58138;43.138;24.702;2024-03-08T02:04:04;46.42;;;29.00;;
70576;SDS011;58138;43.138;24.702;2024-03-08T02:06:32;43.58;;;29.50;;
70576;SDS011;58138;43.138;24.702;2024-03-08T02:08:58;45.90;;;30.55;;
70576;SDS011;58138;43.138;24.702;2024-03-08T02:11:23;44.92;;;29.73;;
70576;SDS011;58138;43.138;24.702;2024-03-08T02:13:49;50.05;;;32.08;;
70576;SDS011;58138;43.138;24.702;2024-03-08T02:16:19;51.53;;;31.65;;
70576;SDS011;58138;43.138;24.702;2024-03-08T02:18:46;50.47;;;32.77;;
70576;SDS011;58138;43.138;24.702;2024-03-08T02:21:11;51.55;;;31.55;;
70576;SDS011;58138;43.138;24.702;2024-03-08T02:23:37;48.55;;;31.05;;
70576;SDS011;58138;43.138;24.702;2024-03-08T02:26:03;49.67;;;32.05;;
70576;SDS011;58138;43.138;24.702;2024-03-08T02:28:29;50.90;;;31.15;;
70576;SDS011;58138;43.138;24.702;2024-03-08T02:30:55;50.55;;;32.55;;
70576;SDS011;58138;43.138;24.702;2024-03-08T02:33:21;55.20;;;32.33;;
70576;SDS011;58138;43.138;24.702;2024-03-08T02:35:48;52.08;;;31.15;;
70576;SDS011;58138;43.138;24.702;2024-03-08T02:38:14;56.10;;;32.83;;
70576;SDS011;58138;43.138;24.702;2024-03-08T02:40:44;53.53;;;31.77;;
70576;SDS011;58138;43.138;24.702;2024-03-08T02:43:11;49.70;;;31.33;;
70576;SDS011;58138;43.138;24.702;2024-03-08T02:45:37;53.10;;;32.67;;
70576;SDS011;58138;43.138;24.702;2024-03-08T02:48:02;53.75;;;32.22;;
70576;SDS011;58138;43.138;24.702;2024-03-08T02:50:28;53.97;;;32.42;;
70576;SDS011;58138;43.138;24.702;2024-03-08T02:52:54;59.80;;;34.67;;
70576;SDS011;58138;43.138;24.702;2024-03-08T02:55:19;55.17;;;34.17;;
70576;SDS011;58138;43.138;24.702;2024-03-08T02:57:45;60.38;;;33.45;;
70576;SDS011;58138;43.138;24.702;2024-03-08T03:00:14;59.22;;;33.92;;
70576;SDS011;58138;43.138;24.702;2024-03-08T03:02:41;57.90;;;33.28;;
70576;SDS011;58138;43.138;24.702;2024-03-08T03:05:07;55.00;;;32.80;;
70576;SDS011;58138;43.138;24.702;2024-03-08T03:07:35;57.72;;;35.42;;
70576;SDS011;58138;43.138;24.702;2024-03-08T03:10:00;57.55;;;34.67;;
70576;SDS011;58138;43.138;24.702;2024-03-08T03:12:27;61.05;;;34.65;;
70576;SDS011;58138;43.138;24.702;2024-03-08T03:14:53;60.08;;;34.75;;
70576;SDS011;58138;43.138;24.702;2024-03-08T03:17:18;57.20;;;34.53;;
70576;SDS011;58138;43.138;24.702;2024-03-08T03:19:45;53.42;;;32.78;;
70576;SDS011;58138;43.138;24.702;2024-03-08T03:22:11;55.25;;;33.33;;
70576;SDS011;58138;43.138;24.702;2024-03-08T03:24:37;55.80;;;33.20;;
70576;SDS011;58138;43.138;24.702;2024-03-08T03:27:07;51.85;;;31.63;;
70576;SDS011;58138;43.138;24.702;2024-03-08T03:29:39;54.80;;;32.85;;
70576;SDS011;58138;43.138;24.702;2024-03-08T03:32:11;55.03;;;33.95;;
70576;SDS011;58138;43.138;24.702;2024-03-08T03:34:37;56.13;;;33.63;;
70576;SDS011;58138;43.138;24.702;2024-03-08T03:37:03;53.88;;;34.05;;
70576;SDS011;58138;43.138;24.702;2024-03-08T03:39:29;55.58;;;32.60;;
70576;SDS011;58138;43.138;24.702;2024-03-08T03:41:59;56.88;;;33.75;;
70576;SDS011;58138;43.138;24.702;2024-03-08T03:44:27;54.75;;;34.10;;
70576;SDS011;58138;43.138;24.702;2024-03-08T03:46:53;55.17;;;33.50;;
70576;SDS011;58138;43.138;24.702;2024-03-08T03:49:18;55.65;;;34.22;;
70576;SDS011;58138;43.138;24.702;2024-03-08T03:51:44;59.60;;;34.67;;
70576;SDS011;58138;43.138;24.702;2024-03-08T03:54:10;55.85;;;34.90;;
70576;SDS011;58138;43.138;24.702;2024-03-08T03:56:36;54.83;;;33.40;;
70576;SDS011;58138;43.138;24.702;2024-03-08T03:59:01;51.03;;;31.67;;
70576;SDS011;58138;43.138;24.702;2024-03-08T04:01:27;55.33;;;32.22;;
70576;SDS011;58138;43.138;24.702;2024-03-08T04:03:54;52.63;;;32.83;;
70576;SDS011;58138;43.138;24.702;2024-03-08T04:06:20;55.85;;;33.42;;
70576;SDS011;58138;43.138;24.702;2024-03-08T04:08:45;54.13;;;33.92;;
70576;SDS011;58138;43.138;24.702;2024-03-08T04:11:11;51.33;;;33.08;;
70576;SDS011;58138;43.138;24.702;2024-03-08T04:13:36;51.90;;;33.20;;
70576;SDS011;58138;43.138;24.702;2024-03-08T04:16:02;47.00;;;31.17;;
70576;SDS011;58138;43.138;24.702;2024-03-08T04:18:33;49.67;;;31.88;;
70576;SDS011;58138;43.138;24.702;2024-03-08T04:21:01;49.30;;;31.63;;
70576;SDS011;58138;43.138;24.702;2024-03-08T04:23:27;45.90;;;30.08;;
70576;SDS011;58138;43.138;24.702;2024-03-08T04:25:53;49.28;;;31.08;;
70576;SDS011;58138;43.138;24.702;2024-03-08T04:28:19;49.35;;;33.25;;
70576;SDS011;58138;43.138;24.702;2024-03-08T04:30:45;47.60;;;31.25;;
70576;SDS011;58138;43.138;24.702;2024-03-08T04:33:11;46.08;;;30.10;;
70576;SDS011;58138;43.138;24.702;2024-03-08T04:35:36;47.10;;;29.90;;
70576;SDS011;58138;43.138;24.702;2024-03-08T04:38:02;46.03;;;30.05;;
70576;SDS011;58138;43.138;24.702;2024-03-08T04:40:30;71.13;;;44.70;;
70576;SDS011;58138;43.138;24.702;2024-03-08T04:42:56;67.82;;;42.38;;
70576;SDS011;58138;43.138;24.702;2024-03-08T04:45:23;52.20;;;32.30;;
70576;SDS011;58138;43.138;24.702;2024-03-08T04:47:51;55.35;;;35.75;;
70576;SDS011;58138;43.138;24.702;2024-03-08T04:50:17;48.50;;;31.38;;
70576;SDS011;58138;43.138;24.702;2024-03-08T04:52:43;48.45;;;31.77;;
70576;SDS011;58138;43.138;24.702;2024-03-08T04:55:09;53.20;;;33.60;;
70576;SDS011;58138;43.138;24.702;2024-03-08T04:57:34;49.45;;;32.15;;
70576;SDS011;58138;43.138;24.702;2024-03-08T05:00:01;48.50;;;31.83;;
70576;SDS011;58138;43.138;24.702;2024-03-08T05:02:29;53.30;;;34.80;;
70576;SDS011;58138;43.138;24.702;2024-03-08T05:04:55;52.83;;;33.47;;
70576;SDS011;58138;43.138;24.702;2024-03-08T05:07:20;55.28;;;35.25;;
70576;SDS011;58138;43.138;24.702;2024-03-08T05:09:46;54.72;;;35.75;;
70576;SDS011;58138;43.138;24.702;2024-03-08T05:12:16;59.05;;;36.42;;
70576;SDS011;58138;43.138;24.702;2024-03-08T05:14:44;62.30;;;38.20;;
70576;SDS011;58138;43.138;24.702;2024-03-08T05:17:15;71.80;;;44.00;;
70576;SDS011;58138;43.138;24.702;2024-03-08T05:19:41;58.80;;;37.40;;
70576;SDS011;58138;43.138;24.702;2024-03-08T05:22:07;69.10;;;40.67;;
70576;SDS011;58138;43.138;24.702;2024-03-08T05:24:33;61.30;;;38.70;;
70576;SDS011;58138;43.138;24.702;2024-03-08T05:26:59;64.15;;;39.15;;
70576;SDS011;58138;43.138;24.702;2024-03-08T05:29:25;57.22;;;37.17;;
70576;SDS011;58138;43.138;24.702;2024-03-08T05:31:51;62.75;;;37.55;;
70576;SDS011;58138;43.138;24.702;2024-03-08T05:34:17;61.65;;;37.17;;
70576;SDS011;58138;43.138;24.702;2024-03-08T05:36:44;59.58;;;36.67;;
70576;SDS011;58138;43.138;24.702;2024-03-08T05:39:15;61.25;;;37.45;;
70576;SDS011;58138;43.138;24.702;2024-03-08T05:41:41;61.72;;;36.75;;
70576;SDS011;58138;43.138;24.702;2024-03-08T05:44:07;63.63;;;38.17;;
70576;SDS011;58138;43.138;24.702;2024-03-08T05:46:33;55.40;;;34.42;;
70576;SDS011;58138;43.138;24.702;2024-03-08T05:48:59;70.22;;;44.08;;
70576;SDS011;58138;43.138;24.702;2024-03-08T05:51:25;60.42;;;37.95;;
70576;SDS011;58138;43.138;24.702;2024-03-08T05:53:53;57.35;;;37.42;;
70576;SDS011;58138;43.138;24.702;2024-03-08T05:56:20;51.53;;;33.65;;
70576;SDS011;58138;43.138;24.702;2024-03-08T05:58:48;54.20;;;33.78;;
70576;SDS011;58138;43.138;24.702;2024-03-08T06:01:15;55.10;;;35.95;;
70576;SDS011;58138;43.138;24.702;2024-03-08T06:03:40;52.08;;;34.58;;
70576;SDS011;58138;43.138;24.702;2024-03-08T06:06:13;52.25;;;33.92;;
70576;SDS011;58138;43.138;24.702;2024-03-08T06:08:39;51.85;;;33.80;;
70576;SDS011;58138;43.138;24.702;2024-03-08T06:11:04;54.92;;;34.90;;
70576;SDS011;58138;43.138;24.702;2024-03-08T06:13:34;52.67;;;34.53;;
70576;SDS011;58138;43.138;24.702;2024-03-08T06:16:00;50.78;;;32.38;;
70576;SDS011;58138;43.138;24.702;2024-03-08T06:18:29;48.40;;;33.03;;
70576;SDS011;58138;43.138;24.702;2024-03-08T06:20:57;52.92;;;32.97;;
70576;SDS011;58138;43.138;24.702;2024-03-08T06:23:23;44.75;;;28.67;;
70576;SDS011;58138;43.138;24.702;2024-03-08T06:25:48;44.45;;;28.48;;
70576;SDS011;58138;43.138;24.702;2024-03-08T06:28:14;49.63;;;32.67;;
70576;SDS011;58138;43.138;24.702;2024-03-08T06:30:39;48.53;;;33.38;;
70576;SDS011;58138;43.138;24.702;2024-03-08T06:33:05;47.88;;;30.02;;
70576;SDS011;58138;43.138;24.702;2024-03-08T06:35:32;46.83;;;30.08;;
70576;SDS011;58138;43.138;24.702;2024-03-08T06:37:58;39.60;;;27.65;;
70576;SDS011;58138;43.138;24.702;2024-03-08T06:40:23;41.13;;;26.38;;
70576;SDS011;58138;43.138;24.702;2024-03-08T06:42:49;37.38;;;24.35;;
70576;SDS011;58138;43.138;24.702;2024-03-08T06:45:17;37.50;;;24.95;;
70576;SDS011;58138;43.138;24.702;2024-03-08T06:47:46;34.97;;;24.17;;
70576;SDS011;58138;43.138;24.702;2024-03-08T06:50:12;36.80;;;23.48;;
70576;SDS011;58138;43.138;24.702;2024-03-08T06:52:37;42.17;;;28.58;;
70576;SDS011;58138;43.138;24.702;2024-03-08T06:55:04;46.38;;;31.75;;
70576;SDS011;58138;43.138;24.702;2024-03-08T06:57:30;41.67;;;28.40;;
70576;SDS011;58138;43.138;24.702;2024-03-08T06:59:57;39.40;;;26.10;;
70576;SDS011;58138;43.138;24.702;2024-03-08T07:02:23;35.83;;;24.65;;
70576;SDS011;58138;43.138;24.702;2024-03-08T07:04:51;34.13;;;23.92;;
70576;SDS011;58138;43.138;24.702;2024-03-08T07:07:18;36.58;;;25.92;;
70576;SDS011;58138;43.138;24.702;2024-03-08T07:09:45;39.20;;;26.85;;
70576;SDS011;58138;43.138;24.702;2024-03-08T07:12:11;35.58;;;25.77;;
70576;SDS011;58138;43.138;24.702;2024-03-08T07:14:38;37.22;;;25.63;;
70576;SDS011;58138;43.138;24.702;2024-03-08T07:17:06;37.53;;;27.02;;
70576;SDS011;58138;43.138;24.702;2024-03-08T07:19:34;43.25;;;29.20;;
70576;SDS011;58138;43.138;24.702;2024-03-08T07:22:00;42.42;;;29.83;;
70576;SDS011;58138;43.138;24.702;2024-03-08T07:24:25;40.83;;;28.33;;
70576;SDS011;58138;43.138;24.702;2024-03-08T07:27:15;40.53;;;28.58;;
70576;SDS011;58138;43.138;24.702;2024-03-08T07:29:42;34.90;;;24.95;;
70576;SDS011;58138;43.138;24.702;2024-03-08T07:32:07;47.97;;;30.90;;
70576;SDS011;58138;43.138;24.702;2024-03-08T07:34:50;81.57;;;51.47;;
70576;SDS011;58138;43.138;24.702;2024-03-08T07:37:17;95.85;;;61.60;;
70576;SDS011;58138;43.138;24.702;2024-03-08T07:39:44;72.20;;;47.35;;
70576;SDS011;58138;43.138;24.702;2024-03-08T07:42:09;52.80;;;34.75;;
70576;SDS011;58138;43.138;24.702;2024-03-08T07:44:36;53.30;;;34.60;;
70576;SDS011;58138;43.138;24.702;2024-03-08T07:47:02;50.53;;;33.90;;
70576;SDS011;58138;43.138;24.702;2024-03-08T07:49:28;58.97;;;35.78;;
70576;SDS011;58138;43.138;24.702;2024-03-08T07:51:55;56.03;;;35.47;;
70576;SDS011;58138;43.138;24.702;2024-03-08T07:54:24;61.90;;;38.10;;
70576;SDS011;58138;43.138;24.702;2024-03-08T07:56:51;57.10;;;36.58;;
70576;SDS011;58138;43.138;24.702;2024-03-08T07:59:17;67.18;;;39.20;;
70576;SDS011;58138;43.138;24.702;2024-03-08T08:01:43;59.88;;;36.50;;
70576;SDS011;58138;43.138;24.702;2024-03-08T08:04:09;54.38;;;36.17;;
70576;SDS011;58138;43.138;24.702;2024-03-08T08:06:38;59.10;;;37.15;;
70576;SDS011;58138;43.138;24.702;2024-03-08T08:09:06;67.50;;;42.97;;
70576;SDS011;58138;43.138;24.702;2024-03-08T08:11:39;60.25;;;38.72;;
70576;SDS011;58138;43.138;24.702;2024-03-08T08:14:06;54.45;;;36.35;;
70576;SDS011;58138;43.138;24.702;2024-03-08T08:16:34;53.70;;;33.95;;
70576;SDS011;58138;43.138;24.702;2024-03-08T08:19:01;59.40;;;37.28;;
70576;SDS011;58138;43.138;24.702;2024-03-08T08:21:32;69.93;;;44.45;;
70576;SDS011;58138;43.138;24.702;2024-03-08T08:24:04;59.40;;;38.05;;
70576;SDS011;58138;43.138;24.702;2024-03-08T08:26:29;63.08;;;40.13;;
70576;SDS011;58138;43.138;24.702;2024-03-08T08:28:55;63.33;;;42.10;;
70576;SDS011;58138;43.138;24.702;2024-03-08T08:31:21;55.65;;;36.25;;
70576;SDS011;58138;43.138;24.702;2024-03-08T08:33:46;57.22;;;37.50;;
70576;SDS011;58138;43.138;24.702;2024-03-08T08:36:14;57.65;;;37.90;;
70576;SDS011;58138;43.138;24.702;2024-03-08T08:38:40;56.90;;;37.25;;
70576;SDS011;58138;43.138;24.702;2024-03-08T08:41:09;58.00;;;37.92;;
70576;SDS011;58138;43.138;24.702;2024-03-08T08:43:34;58.67;;;38.95;;
70576;SDS011;58138;43.138;24.702;2024-03-08T08:46:00;64.55;;;41.40;;
70576;SDS011;58138;43.138;24.702;2024-03-08T08:48:26;65.97;;;42.78;;
70576;SDS011;58138;43.138;24.702;2024-03-08T08:50:54;63.88;;;40.88;;
70576;SDS011;58138;43.138;24.702;2024-03-08T08:53:20;69.32;;;42.75;;
70576;SDS011;58138;43.138;24.702;2024-03-08T08:55:47;70.13;;;41.83;;
70576;SDS011;58138;43.138;24.702;2024-03-08T08:58:12;73.97;;;43.88;;
70576;SDS011;58138;43.138;24.702;2024-03-08T09:00:39;75.57;;;45.70;;
70576;SDS011;58138;43.138;24.702;2024-03-08T09:03:04;72.78;;;42.75;;
70576;SDS011;58138;43.138;24.702;2024-03-08T09:05:31;69.93;;;41.70;;
70576;SDS011;58138;43.138;24.702;2024-03-08T09:07:57;68.50;;;43.33;;
70576;SDS011;58138;43.138;24.702;2024-03-08T09:10:23;73.78;;;45.30;;
70576;SDS011;58138;43.138;24.702;2024-03-08T09:12:48;68.13;;;42.28;;
70576;SDS011;58138;43.138;24.702;2024-03-08T09:15:14;71.22;;;43.05;;
70576;SDS011;58138;43.138;24.702;2024-03-08T09:17:42;70.18;;;42.05;;
70576;SDS011;58138;43.138;24.702;2024-03-08T09:20:09;76.80;;;47.95;;
70576;SDS011;58138;43.138;24.702;2024-03-08T09:22:39;74.43;;;45.65;;
70576;SDS011;58138;43.138;24.702;2024-03-08T09:25:05;69.78;;;44.17;;
70576;SDS011;58138;43.138;24.702;2024-03-08T09:27:32;71.15;;;42.67;;
70576;SDS011;58138;43.138;24.702;2024-03-08T09:29:59;75.28;;;43.08;;
70576;SDS011;58138;43.138;24.702;2024-03-08T09:32:25;73.53;;;42.20;;
70576;SDS011;58138;43.138;24.702;2024-03-08T09:34:51;77.22;;;44.67;;
70576;SDS011;58138;43.138;24.702;2024-03-08T09:37:17;68.28;;;43.30;;
70576;SDS011;58138;43.138;24.702;2024-03-08T09:39:43;72.10;;;45.47;;
70576;SDS011;58138;43.138;24.702;2024-03-08T09:42:09;74.18;;;44.83;;
70576;SDS011;58138;43.138;24.702;2024-03-08T09:44:36;75.25;;;47.30;;
70576;SDS011;58138;43.138;24.702;2024-03-08T09:47:01;84.15;;;51.03;;
70576;SDS011;58138;43.138;24.702;2024-03-08T09:49:27;96.95;;;54.88;;
70576;SDS011;58138;43.138;24.702;2024-03-08T09:51:54;77.30;;;46.53;;
70576;SDS011;58138;43.138;24.702;2024-03-08T09:54:20;81.32;;;46.38;;
70576;SDS011;58138;43.138;24.702;2024-03-08T09:56:47;83.80;;;50.15;;
70576;SDS011;58138;43.138;24.702;2024-03-08T09:59:14;82.72;;;47.50;;
70576;SDS011;58138;43.138;24.702;2024-03-08T10:01:59;79.15;;;45.33;;
70576;SDS011;58138;43.138;24.702;2024-03-08T10:04:25;68.57;;;41.55;;
70576;SDS011;58138;43.138;24.702;2024-03-08T10:06:53;73.68;;;44.58;;
70576;SDS011;58138;43.138;24.702;2024-03-08T10:09:19;71.53;;;42.92;;
70576;SDS011;58138;43.138;24.702;2024-03-08T10:11:45;72.15;;;44.75;;
70576;SDS011;58138;43.138;24.702;2024-03-08T10:14:11;76.70;;;43.95;;
70576;SDS011;58138;43.138;24.702;2024-03-08T10:16:38;71.43;;;42.28;;
70576;SDS011;58138;43.138;24.702;2024-03-08T10:19:04;74.80;;;43.65;;
70576;SDS011;58138;43.138;24.702;2024-03-08T10:21:31;70.80;;;42.42;;
70576;SDS011;58138;43.138;24.702;2024-03-08T10:23:57;72.00;;;43.85;;
70576;SDS011;58138;43.138;24.702;2024-03-08T10:26:24;71.22;;;41.50;;
70576;SDS011;58138;43.138;24.702;2024-03-08T10:28:50;72.38;;;42.38;;
70576;SDS011;58138;43.138;24.702;2024-03-08T10:31:17;69.10;;;41.55;;
70576;SDS011;58138;43.138;24.702;2024-03-08T10:33:44;73.45;;;42.05;;
70576;SDS011;58138;43.138;24.702;2024-03-08T10:36:11;73.03;;;43.40;;
70576;SDS011;58138;43.138;24.702;2024-03-08T10:38:38;70.28;;;42.28;;
70576;SDS011;58138;43.138;24.702;2024-03-08T10:41:05;77.72;;;46.00;;
70576;SDS011;58138;43.138;24.702;2024-03-08T10:44:18;78.85;;;45.15;;
70576;SDS011;58138;43.138;24.702;2024-03-08T10:49:12;76.70;;;44.95;;
70576;SDS011;58138;43.138;24.702;2024-03-08T10:51:42;75.78;;;45.10;;
70576;SDS011;58138;43.138;24.702;2024-03-08T10:54:09;78.75;;;44.53;;
70576;SDS011;58138;43.138;24.702;2024-03-08T10:56:35;66.88;;;42.00;;
70576;SDS011;58138;43.138;24.702;2024-03-08T10:59:01;70.32;;;40.65;;
70576;SDS011;58138;43.138;24.702;2024-03-08T11:01:29;66.50;;;39.38;;
70576;SDS011;58138;43.138;24.702;2024-03-08T11:03:55;75.30;;;42.15;;
70576;SDS011;58138;43.138;24.702;2024-03-08T11:09:31;76.10;;;42.83;;
70576;SDS011;58138;43.138;24.702;2024-03-08T11:12:39;78.03;;;43.88;;
70576;SDS011;58138;43.138;24.702;2024-03-08T11:15:00;72.07;;;42.70;;
70576;SDS011;58138;43.138;24.702;2024-03-08T11:19:57;76.43;;;42.67;;
70576;SDS011;58138;43.138;24.702;2024-03-08T11:22:27;73.88;;;41.85;;
70576;SDS011;58138;43.138;24.702;2024-03-08T11:25:01;76.22;;;43.03;;
70576;SDS011;58138;43.138;24.702;2024-03-08T11:27:30;73.95;;;42.63;;
70576;SDS011;58138;43.138;24.702;2024-03-08T11:30:06;79.82;;;45.00;;
70576;SDS011;58138;43.138;24.702;2024-03-08T11:32:44;78.18;;;43.40;;
70576;SDS011;58138;43.138;24.702;2024-03-08T11:35:19;77.35;;;43.83;;
70576;SDS011;58138;43.138;24.702;2024-03-08T11:37:46;71.97;;;41.35;;
70576;SDS011;58138;43.138;24.702;2024-03-08T11:40:13;78.50;;;43.55;;
70576;SDS011;58138;43.138;24.702;2024-03-08T11:42:45;76.20;;;43.70;;
70576;SDS011;58138;43.138;24.702;2024-03-08T11:45:14;79.05;;;43.20;;
70576;SDS011;58138;43.138;24.702;2024-03-08T11:47:43;78.97;;;43.83;;
70576;SDS011;58138;43.138;24.702;2024-03-08T11:50:15;87.95;;;47.55;;
70576;SDS011;58138;43.138;24.702;2024-03-08T11:52:41;84.38;;;47.08;;
70576;SDS011;58138;43.138;24.702;2024-03-08T11:55:08;88.32;;;49.40;;
70576;SDS011;58138;43.138;24.702;2024-03-08T11:57:33;91.43;;;48.95;;
70576;SDS011;58138;43.138;24.702;2024-03-08T11:59:59;84.47;;;47.10;;
70576;SDS011;58138;43.138;24.702;2024-03-08T12:04:58;91.53;;;46.92;;
70576;SDS011;58138;43.138;24.702;2024-03-08T12:07:25;90.80;;;48.40;;
70576;SDS011;58138;43.138;24.702;2024-03-08T12:12:47;89.93;;;49.78;;
70576;SDS011;58138;43.138;24.702;2024-03-08T12:15:16;95.15;;;48.88;;
70576;SDS011;58138;43.138;24.702;2024-03-08T12:17:43;92.82;;;49.17;;
70576;SDS011;58138;43.138;24.702;2024-03-08T12:20:28;93.40;;;48.45;;
70576;SDS011;58138;43.138;24.702;2024-03-08T12:22:57;91.32;;;48.08;;
70576;SDS011;58138;43.138;24.702;2024-03-08T12:25:32;93.07;;;47.63;;
70576;SDS011;58138;43.138;24.702;2024-03-08T12:28:11;96.43;;;48.97;;
70576;SDS011;58138;43.138;24.702;2024-03-08T12:33:14;90.32;;;46.97;;
70576;SDS011;58138;43.138;24.702;2024-03-08T12:35:39;92.75;;;46.95;;
70576;SDS011;58138;43.138;24.702;2024-03-08T12:38:05;87.47;;;46.78;;
70576;SDS011;58138;43.138;24.702;2024-03-08T12:40:33;84.65;;;47.25;;
70576;SDS011;58138;43.138;24.702;2024-03-08T12:45:31;98.05;;;51.13;;
70576;SDS011;58138;43.138;24.702;2024-03-08T12:47:57;94.93;;;49.63;;
70576;SDS011;58138;43.138;24.702;2024-03-08T12:50:24;93.50;;;48.03;;
70576;SDS011;58138;43.138;24.702;2024-03-08T12:52:50;91.97;;;50.58;;
70576;SDS011;58138;43.138;24.702;2024-03-08T12:55:17;91.53;;;50.03;;
70576;SDS011;58138;43.138;24.702;2024-03-08T12:57:43;91.25;;;48.83;;
70576;SDS011;58138;43.138;24.702;2024-03-08T13:00:09;95.80;;;48.95;;
70576;SDS011;58138;43.138;24.702;2024-03-08T13:02:41;89.18;;;48.05;;
70576;SDS011;58138;43.138;24.702;2024-03-08T13:05:07;86.88;;;47.25;;
70576;SDS011;58138;43.138;24.702;2024-03-08T13:07:34;86.30;;;46.10;;
70576;SDS011;58138;43.138;24.702;2024-03-08T13:10:00;87.88;;;47.30;;
70576;SDS011;58138;43.138;24.702;2024-03-08T13:12:26;88.57;;;46.17;;
70576;SDS011;58138;43.138;24.702;2024-03-08T13:14:51;85.28;;;46.47;;
70576;SDS011;58138;43.138;24.702;2024-03-08T13:17:17;88.45;;;44.67;;
70576;SDS011;58138;43.138;24.702;2024-03-08T13:19:44;97.45;;;52.67;;
70576;SDS011;58138;43.138;24.702;2024-03-08T13:22:09;90.32;;;49.72;;
70576;SDS011;58138;43.138;24.702;2024-03-08T13:24:41;102.93;;;54.90;;
70576;SDS011;58138;43.138;24.702;2024-03-08T13:27:08;98.38;;;51.65;;
70576;SDS011;58138;43.138;24.702;2024-03-08T13:29:47;93.90;;;49.28;;
70576;SDS011;58138;43.138;24.702;2024-03-08T13:32:16;135.75;;;75.53;;
70576;SDS011;58138;43.138;24.702;2024-03-08T13:34:43;90.03;;;49.20;;
70576;SDS011;58138;43.138;24.702;2024-03-08T13:37:10;96.97;;;50.85;;
70576;SDS011;58138;43.138;24.702;2024-03-08T13:39:37;99.80;;;54.10;;
70576;SDS011;58138;43.138;24.702;2024-03-08T13:42:09;95.60;;;49.42;;
70576;SDS011;58138;43.138;24.702;2024-03-08T13:47:03;99.32;;;50.35;;
70576;SDS011;58138;43.138;24.702;2024-03-08T13:49:29;97.47;;;50.35;;
70576;SDS011;58138;43.138;24.702;2024-03-08T13:51:55;93.90;;;50.20;;
70576;SDS011;58138;43.138;24.702;2024-03-08T13:54:24;97.47;;;51.33;;
70576;SDS011;58138;43.138;24.702;2024-03-08T13:56:49;93.90;;;49.70;;
70576;SDS011;58138;43.138;24.702;2024-03-08T13:59:19;98.03;;;51.13;;
70576;SDS011;58138;43.138;24.702;2024-03-08T14:01:47;94.07;;;51.03;;
70576;SDS011;58138;43.138;24.702;2024-03-08T14:04:14;100.70;;;55.13;;
70576;SDS011;58138;43.138;24.702;2024-03-08T14:06:40;87.47;;;48.58;;
70576;SDS011;58138;43.138;24.702;2024-03-08T14:09:06;94.15;;;51.30;;
70576;SDS011;58138;43.138;24.702;2024-03-08T14:11:33;95.88;;;50.60;;
70576;SDS011;58138;43.138;24.702;2024-03-08T14:13:58;94.47;;;51.28;;
70576;SDS011;58138;43.138;24.702;2024-03-08T14:16:24;99.45;;;54.53;;
70576;SDS011;58138;43.138;24.702;2024-03-08T14:18:50;94.82;;;51.65;;
70576;SDS011;58138;43.138;24.702;2024-03-08T14:21:15;100.75;;;51.45;;
70576;SDS011;58138;43.138;24.702;2024-03-08T14:23:42;100.90;;;51.00;;
70576;SDS011;58138;43.138;24.702;2024-03-08T14:26:08;88.35;;;49.75;;
70576;SDS011;58138;43.138;24.702;2024-03-08T14:28:34;97.57;;;54.13;;
70576;SDS011;58138;43.138;24.702;2024-03-08T14:31:00;90.82;;;52.85;;
70576;SDS011;58138;43.138;24.702;2024-03-08T14:33:28;90.75;;;50.95;;